Aérodrome :
LOGIN :

S'inscrire | Disclaimer

   EN    FR    IT 

 










Légende :    VFR   VFR Marginal   IFR   IFR Intensif   IFR Très Intensif
Visi : 
Plafond : 
>= 8 km
>= 3000ft
5 à 8 km
1000 à 3000 ft
1500m à 5 km
500 à 1000 ft
800 à 1500m
200 à 500 ft
< 800m
< 200 ft
Symboles :   Orages  Brouillard  Fortes neiges  Fortes précipitations  Vent > 20 kt
SIGMETs :   Divers  Orages  Givrage  Turbulence  Onde Orograph.  Cendres Volcan.






- Altitude de l'aérodrome : 502 ft
- Code IATA : ORK


EICK - Cork

DERNIER METAR :
  • 061700Z 28013KT 9999 SCT022 SCT030 09/05 Q1008 NOSIG

METARs EXPIRÉS :
  • 061630Z 30017KT 9999 BKN028 09/05 Q1007 NOSIG
  • 061600Z 25010KT 9999 BKN021 09/05 Q1008 NOSIG
  • 061530Z 29019KT 9999 BKN023 10/05 Q1006 NOSIG
  • 061500Z 27009KT 9999 FEW022 10/06 Q1006 NOSIG

TAF TAF EICK
Valide du 06 à 18h jusqu'au 07 à 18h UTC


061700Z 0618/0718 30014KT 9999 SCT018 BKN028
BECMG 0618/0620 24008KT
BECMG 0709/0711 22013KT BKN012
BECMG 0712/0714 21015G26KT
TEMPO 0712/0715 -RA BKN007
BECMG 0715/0717 20020G32KT 4000 -RADZ BKN007
TEMPO 0717/0718 2000 RADZ BKN003



MET'MAP, la Météo Aéronautique d'un coup d'oeil ! - Copyright ORBIFLY Décembre 2007 - Disclaimer

ORBIFLY MET'MAP TEAM :

Programmation & Développement : Alexandra Zaïnal
Sur une idée originale de : Baudouin d'Aumeries
Assistance à la programmation : Marc-Olivier Méhu
Soutien technique & logistique : Manuel Goepfert

Contact : metmap@orbifly.com




SOURCES & CREDITS :

   NOAA